首页
METAR-TAF:

METAR-TAF

机场 :

安德鲁斯空军基地

Camp Springs, 马里兰州, 美国

纬度: 38-49N, 经度: 076-51W, 海拔: 86米

当前天气观测

该预报发布于19分钟前的14:56 UTC
风速11节,风向,有时为16节阵风
温度 -2°C
湿度 46%
气压 1034 hPa
能見度: 16.1公里
天空无云

METAR: KADW 211456Z AUTO 35011G16KT 10SM CLR M02/M12 A3052 RMK AO2 SLP346 T10231118 52012 $

时间: 10:15 (15:15 UTC)

预报

该预报发布于6小时和15分钟前的09:00 UTC
预报有效从21日的 09点(UTC)到 22日的 15点(UTC)
风速10节,风向
能见度10公里或以上
天空无云
成为
从 22日的 00点(UTC)到 22日的 01点(UTC)
风速5节,风向
能见度10公里或以上
少量云层高于2000英尺

TAF: KADW 210900Z 2109/2215 36010KT 9999 SKC QNH3044INS BECMG 2200/2201 35005KT 9999 FEW020 QNH3043INS TX01/2119Z TNM07/2111Z

超过4000个机场的气象观测和天气预报(METAR&TAF报告)。

可查询的气象台以黄色和红色小点在地图上表示。

将鼠标移到小点上方,可查看气象台名称。

然后点击查看天气观测和预报。

如需切换地图:点击带黑十字的绿色按钮放大地图;点击带横线的绿色按钮缩小地图;或者点击绿色箭头查看邻近地区的地图。


METAR-TAF: